Hadar, Nebraska
Current Conditions -  °F | °C
As of 1:56 PM on Friday 28 Nov 2014 (Local Time) from KOFK Reporting Station
NA  
Wind Chill: 57°   Ceiling: NA
Heat Index: 57°   Visibility: NA
Dew Point: 30°   Wind: 9mph
Humidity: 36%   Direction: 190°S
Pressure: 29.63"   Gusts: NA
Location:  42.11°N, 97.45°W
Report Text: KOFK 281956Z AUTO 19008KT 14/M01 A2963 RMK AO2 SLP040 T01391011 $
Loading
Personal Weather Stations






























Interactive Weather Map New forecast layout! Learn more

10-Day Weather Forecast

Advertisements
Track Severe Weather on mobile